Time;durP1;ratioP1;P1;durP2;ratioP2;P2;SDS_P1;SDS_P2;PMS_P1;PMS_P2;Temp;Humidity;BMP_temperature;BMP_pressure;BME280_temperature;BME280_humidity;BME280_pressure;Samples;Min_cycle;Max_cycle;Signal;HPM_P1;HPM_P2
2022/12/25 00:01:11;;;;;;;35.38;13.77;;;5.10;95.20;;;;;;5016655;28;20026;-57
2022/12/25 00:03:39;;;;;;;;;;;5.30;95.20;;;;;;5031365;28;20045;-61
2022/12/25 00:06:06;;;;;;;31.58;13.48;;;5.30;95.30;;;;;;5032159;28;19909;-58
2022/12/25 00:08:33;;;;;;;34.70;13.75;;;5.40;95.30;;;;;;5030565;28;20105;-58
2022/12/25 00:11:03;;;;;;;40.35;15.07;;;5.50;95.40;;;;;;5018234;28;20466;-58
2022/12/25 00:13:33;;;;;;;36.78;14.05;;;5.60;95.40;;;;;;5036754;28;20029;-57
2022/12/25 00:16:03;;;;;;;;;;;5.60;95.40;;;;;;5055807;28;20102;-52
2022/12/25 00:18:31;;;;;;;40.58;15.10;;;5.70;95.40;;;;;;5046162;28;19939;-57
2022/12/25 00:21:04;;;;;;;41.25;16.33;;;5.70;95.40;;;;;;5034868;28;20021;-57
2022/12/25 00:23:33;;;;;;;44.42;18.45;;;5.70;95.50;;;;;;5034637;28;20041;-54
2022/12/25 00:26:06;;;;;;;46.80;17.20;;;5.80;95.50;;;;;;5035317;28;20099;-53
2022/12/25 00:28:36;;;;;;;57.95;18.35;;;5.90;95.50;;;;;;5044912;28;20481;-53
2022/12/25 00:31:15;;;;;;;47.60;16.55;;;5.90;95.60;;;;;;5050567;28;20568;-54
2022/12/25 00:33:43;;;;;;;47.67;17.05;;;6.00;95.60;;;;;;5033720;28;20037;-58
2022/12/25 00:36:12;;;;;;;49.47;16.42;;;6.10;95.60;;;;;;5015892;28;20030;-53
2022/12/25 00:38:40;;;;;;;43.60;15.47;;;6.10;95.60;;;;;;5018566;28;20029;-56
2022/12/25 00:41:13;;;;;;;36.80;16.35;;;6.10;95.60;;;;;;5020345;28;20462;-56
2022/12/25 00:43:42;;;;;;;40.58;15.60;;;6.10;95.60;;;;;;5035637;28;20021;-56
2022/12/25 00:46:09;;;;;;;;;;;6.20;95.60;;;;;;5036457;28;20029;-55
2022/12/25 00:48:36;;;;;;;49.45;19.30;;;6.30;95.60;;;;;;5042215;28;19970;-53
2022/12/25 00:51:07;;;;;;;43.28;16.02;;;6.30;95.70;;;;;;5055756;28;20033;-56
2022/12/25 00:53:34;;;;;;;54.55;16.70;;;6.40;95.70;;;;;;5037788;28;20030;-54
2022/12/25 00:56:05;;;;;;;54.50;18.90;;;6.40;95.70;;;;;;5017126;28;20088;-52
2022/12/25 00:58:34;;;;;;;52.30;18.83;;;6.40;95.60;;;;;;5034302;28;20363;-52
2022/12/25 01:01:01;;;;;;;57.90;18.55;;;6.40;95.70;;;;;;5055538;28;20439;-53
2022/12/25 01:03:27;;;;;;;54.17;18.50;;;6.40;95.60;;;;;;5054999;28;20067;-55
2022/12/25 01:05:59;;;;;;;49.13;18.70;;;6.40;95.70;;;;;;5043634;28;20041;-54
2022/12/25 01:08:27;;;;;;;45.40;19.75;;;6.40;95.70;;;;;;5034836;28;20052;-54
2022/12/25 01:10:57;;;;;;;55.60;19.45;;;6.50;95.70;;;;;;5034099;28;20069;-54
2022/12/25 01:13:24;;;;;;;56.88;22.20;;;6.40;95.60;;;;;;5034995;28;20445;-53
2022/12/25 01:15:51;;;;;;;59.70;20.15;;;6.40;95.70;;;;;;5034508;28;20049;-51
2022/12/25 01:18:22;;;;;;;43.83;20.25;;;6.40;95.60;;;;;;5038875;28;20091;-52
2022/12/25 01:20:52;;;;;;;56.35;21.67;;;6.40;95.60;;;;;;5021019;28;20037;-53
2022/12/25 01:23:19;;;;;;;39.63;21.63;;;6.30;95.60;;;;;;5047232;28;20039;-55
2022/12/25 01:25:46;;;;;;;45.00;22.35;;;6.30;95.60;;;;;;5019417;28;20360;-54
2022/12/25 01:28:16;;;;;;;44.72;21.85;;;6.30;95.60;;;;;;5015385;28;20030;-54
2022/12/25 01:30:52;;;;;;;52.72;20.35;;;6.20;95.60;;;;;;5043582;28;20037;-57
2022/12/25 01:33:19;;;;;;;62.00;22.08;;;6.20;95.50;;;;;;5020397;28;20450;-55
2022/12/25 01:35:48;;;;;;;36.35;19.88;;;6.20;95.60;;;;;;5052251;28;20358;-56
2022/12/25 01:38:15;;;;;;;39.35;18.67;;;6.20;95.50;;;;;;5052332;28;20024;-53
2022/12/25 01:40:44;;;;;;;43.80;18.20;;;6.10;95.50;;;;;;5034024;28;20029;-56
2022/12/25 01:43:31;;;;;;;44.13;20.05;;;6.00;95.50;;;;;;5034049;28;20033;-53
2022/12/25 01:45:58;;;;;;;51.70;21.13;;;6.00;95.40;;;;;;5034768;28;20052;-54
2022/12/25 01:48:32;;;;;;;52.25;20.88;;;5.90;95.40;;;;;;5033947;28;20144;-58
2022/12/25 01:51:22;;;;;;;47.55;20.58;;;5.90;95.40;;;;;;5033946;28;20047;-54
2022/12/25 01:53:52;;;;;;;39.92;19.08;;;5.90;95.50;;;;;;5031604;28;20037;-57
2022/12/25 01:56:22;;;;;;;48.30;20.73;;;5.90;95.50;;;;;;5015003;28;20436;-54
2022/12/25 01:58:50;;;;;;;45.03;21.73;;;5.90;95.50;;;;;;5026346;28;20030;-55
2022/12/25 02:01:17;;;;;;;50.95;21.98;;;5.90;95.50;;;;;;5047538;28;20044;-57
2022/12/25 02:03:43;;;;;;;48.05;22.25;;;5.90;95.50;;;;;;5053876;28;20099;-54
2022/12/25 02:06:11;;;;;;;62.03;23.13;;;5.90;95.50;;;;;;5052880;28;20021;-54
2022/12/25 02:08:41;;;;;;;46.28;20.60;;;5.90;95.50;;;;;;5054207;28;20039;-56
2022/12/25 02:11:55;;;;;;;44.40;20.17;;;5.90;95.50;;;;;;5029385;28;20036;-57
2022/12/25 02:13:57;;;;;;;;;;;5.90;95.50;;;;;;5024659;28;20033;-51
2022/12/25 02:16:28;;;;;;;51.10;20.50;;;5.90;95.50;;;;;;5020403;28;19967;-54
2022/12/25 02:19:04;;;;;;;44.42;21.27;;;5.90;95.50;;;;;;5021227;28;20018;-53
2022/12/25 02:21:55;;;;;;;70.45;24.95;;;5.90;95.50;;;;;;5020080;28;20064;-55
2022/12/25 02:25:19;;;;;;;54.30;23.50;;;5.80;95.50;;;;;;5024549;28;20037;-53
2022/12/25 02:27:51;;;;;;;60.42;23.08;;;5.80;95.50;;;;;;5021884;28;20065;-55
2022/12/25 02:30:18;;;;;;;43.60;20.98;;;5.80;95.50;;;;;;5021913;28;20137;-53
2022/12/25 02:35:55;;;;;;;51.08;22.42;;;5.80;95.60;;;;;;5025050;28;20064;-51
2022/12/25 02:38:35;;;;;;;50.65;21.73;;;5.70;95.50;;;;;;5020540;28;20026;-55
2022/12/25 02:41:09;;;;;;;42.25;21.55;;;5.80;95.50;;;;;;5029700;28;20324;-58
2022/12/25 03:06:44;;;;;;;36.40;20.08;;;5.50;95.40;;;;;;5041870;28;19923;-57
2022/12/25 03:12:14;;;;;;;42.92;23.13;;;5.40;95.40;;;;;;5027834;28;20052;-58
2022/12/25 03:17:27;;;;;;;32.95;19.05;;;5.30;95.40;;;;;;5042409;28;20433;-56
2022/12/25 03:28:13;;;;;;;42.22;20.42;;;5.30;95.40;;;;;;5032975;28;20041;-58
2022/12/25 03:31:12;;;;;;;39.85;18.33;;;5.30;95.50;;;;;;5031537;28;20037;-59
2022/12/25 03:46:50;;;;;;;51.58;22.10;;;5.20;95.50;;;;;;5033697;28;20052;-59
2022/12/25 04:36:13;;;;;;;40.13;19.80;;;5.20;95.60;;;;;;5012609;28;20025;-61
2022/12/25 04:38:40;;;;;;;39.63;18.60;;;5.20;95.60;;;;;;5017195;28;20018;-60
2022/12/25 04:41:10;;;;;;;38.13;19.05;;;5.20;95.70;;;;;;5045097;28;20103;-61
2022/12/25 04:43:35;;;;;;;40.90;18.55;;;5.20;95.60;;;;;;5054989;28;20466;-60
2022/12/25 04:46:02;;;;;;;40.97;19.65;;;5.20;95.70;;;;;;5055223;28;20060;-59
2022/12/25 04:48:31;;;;;;;38.47;18.42;;;5.20;95.70;;;;;;5042524;28;20104;-60
2022/12/25 04:51:09;;;;;;;40.65;20.65;;;5.20;95.70;;;;;;5035729;28;20029;-61
2022/12/25 04:53:36;;;;;;;48.50;17.25;;;5.20;95.70;;;;;;5031057;28;20068;-61
2022/12/25 04:56:03;;;;;;;48.25;22.17;;;5.20;95.80;;;;;;5034880;28;20036;-61
2022/12/25 04:58:33;;;;;;;39.35;19.15;;;5.30;95.80;;;;;;5034547;28;20065;-61
2022/12/25 05:01:01;;;;;;;;;;;5.40;95.80;;;;;;5049701;28;20025;-61
2022/12/25 05:03:27;;;;;;;45.45;20.35;;;5.40;95.80;;;;;;5055019;28;19927;-61
2022/12/25 05:05:53;;;;;;;47.33;21.52;;;5.40;95.80;;;;;;5035115;28;20121;-61
2022/12/25 05:08:20;;;;;;;48.40;20.85;;;5.50;95.80;;;;;;5033226;28;20406;-61
2022/12/25 05:10:48;;;;;;;55.92;21.13;;;5.50;95.90;;;;;;5042045;28;20044;-58
2022/12/25 05:13:15;;;;;;;41.38;20.85;;;5.60;95.90;;;;;;5053783;28;20049;-60
2022/12/25 05:15:41;;;;;;;54.05;23.73;;;5.70;95.90;;;;;;5035726;28;20125;-60
2022/12/25 05:18:08;;;;;;;49.30;22.77;;;5.70;96.00;;;;;;5034055;28;20038;-60
2022/12/25 05:20:35;;;;;;;57.55;23.20;;;5.90;96.00;;;;;;5035309;28;20021;-59
2022/12/25 05:23:00;;;;;;;44.58;20.98;;;5.90;96.00;;;;;;5035324;28;20029;-60
2022/12/25 05:25:27;;;;;;;56.55;24.48;;;5.90;96.00;;;;;;5032133;28;20048;-60
2022/12/25 05:27:57;;;;;;;53.38;24.95;;;5.90;96.00;;;;;;5035051;28;20029;-60
2022/12/25 05:30:24;;;;;;;44.35;21.92;;;6.00;96.00;;;;;;5043374;28;20033;-59
2022/12/25 05:32:51;;;;;;;48.47;23.42;;;6.00;96.00;;;;;;5054451;28;20064;-57
2022/12/25 05:35:17;;;;;;;56.50;22.70;;;6.10;96.00;;;;;;5053900;28;20016;-58
2022/12/25 05:37:46;;;;;;;41.58;21.27;;;6.10;96.10;;;;;;5053329;28;20029;-58
2022/12/25 05:40:13;;;;;;;52.27;22.53;;;6.20;96.10;;;;;;5033904;28;20034;-59
2022/12/25 05:42:40;;;;;;;57.53;22.60;;;6.20;96.10;;;;;;5043621;28;20099;-59
2022/12/25 05:45:07;;;;;;;55.42;23.33;;;6.20;96.10;;;;;;5048492;28;20022;-59
2022/12/25 05:47:34;;;;;;;46.35;21.63;;;6.30;96.10;;;;;;5033529;28;20121;-57
2022/12/25 05:50:02;;;;;;;46.08;22.60;;;6.30;96.10;;;;;;5047177;28;20033;-56
2022/12/25 05:52:33;;;;;;;50.75;22.48;;;6.40;96.10;;;;;;5054670;28;20017;-58
2022/12/25 05:55:02;;;;;;;50.78;23.33;;;6.40;96.10;;;;;;5036235;28;20079;-58
2022/12/25 05:57:30;;;;;;;53.50;23.92;;;6.40;96.20;;;;;;5048635;28;20446;-59
2022/12/25 05:59:57;;;;;;;46.10;21.70;;;6.50;96.20;;;;;;5053248;28;20036;-59
2022/12/25 06:02:24;;;;;;;54.90;23.90;;;6.50;96.20;;;;;;5033055;28;20053;-54
2022/12/25 06:04:51;;;;;;;58.78;22.50;;;6.50;96.10;;;;;;5034254;28;20383;-57
2022/12/25 06:07:18;;;;;;;60.35;23.58;;;6.60;96.20;;;;;;5047184;28;20108;-58
2022/12/25 06:09:45;;;;;;;52.75;23.02;;;6.70;96.20;;;;;;5032867;28;20446;-58
2022/12/25 06:12:12;;;;;;;48.13;23.60;;;6.70;96.20;;;;;;5025018;28;20368;-53
2022/12/25 06:14:39;;;;;;;49.67;21.15;;;6.70;96.20;;;;;;5034546;28;20104;-56
2022/12/25 06:17:05;;;;;;;44.92;22.52;;;6.70;96.20;;;;;;5036757;28;20031;-58
2022/12/25 06:19:31;;;;;;;44.88;21.95;;;6.70;96.20;;;;;;5036004;28;20041;-58
2022/12/25 06:22:00;;;;;;;49.05;21.83;;;6.70;96.20;;;;;;5053076;28;20099;-57
2022/12/25 06:24:29;;;;;;;52.15;22.02;;;6.80;96.20;;;;;;5033703;28;20037;-57
2022/12/25 06:26:55;;;;;;;41.45;20.95;;;6.80;96.30;;;;;;5028719;28;20033;-53
2022/12/25 06:29:21;;;;;;;50.47;24.10;;;6.80;96.30;;;;;;5033640;28;20477;-56
2022/12/25 06:31:48;;;;;;;53.95;24.42;;;6.90;96.20;;;;;;5035977;28;20465;-57
2022/12/25 06:34:15;;;;;;;51.78;22.48;;;6.90;96.30;;;;;;5037399;28;20038;-54
2022/12/25 06:36:42;;;;;;;50.72;22.85;;;6.90;96.30;;;;;;5033918;28;20025;-54
2022/12/25 06:39:09;;;;;;;55.70;24.17;;;7.00;96.30;;;;;;5031669;28;20040;-54
2022/12/25 06:41:35;;;;;;;62.45;26.60;;;7.00;96.30;;;;;;5033657;28;20036;-57
2022/12/25 06:44:04;;;;;;;49.50;23.52;;;7.00;96.30;;;;;;5028806;28;20033;-56
2022/12/25 06:46:32;;;;;;;53.10;25.38;;;7.00;96.30;;;;;;5016417;28;20136;-54
2022/12/25 06:48:59;;;;;;;50.97;26.70;;;7.00;96.20;;;;;;5053408;28;20395;-55
2022/12/25 06:51:28;;;;;;;57.75;28.10;;;7.10;96.30;;;;;;5053558;28;20041;-56
2022/12/25 06:53:57;;;;;;;58.10;28.02;;;7.20;96.30;;;;;;5034204;28;20057;-55
2022/12/25 06:56:25;;;;;;;54.70;27.77;;;7.20;96.30;;;;;;5032573;28;20029;-52
2022/12/25 06:58:58;;;;;;;69.70;30.65;;;7.20;96.30;;;;;;5033704;28;20021;-54
2022/12/25 07:01:30;;;;;;;66.40;29.48;;;7.20;96.30;;;;;;5033285;28;20033;-53
2022/12/25 07:04:00;;;;;;;67.60;29.60;;;7.30;96.30;;;;;;5032776;28;20060;-56
2022/12/25 07:06:32;;;;;;;75.60;30.67;;;7.40;96.30;;;;;;5032669;28;20044;-56
2022/12/25 07:08:59;;;;;;;66.60;28.55;;;7.40;96.30;;;;;;5021854;28;20030;-53
2022/12/25 07:11:28;;;;;;;72.00;31.15;;;7.40;96.30;;;;;;5024691;28;20032;-55
2022/12/25 07:13:55;;;;;;;78.63;29.75;;;7.40;96.30;;;;;;5052898;28;20422;-54
2022/12/25 07:16:22;;;;;;;62.95;28.25;;;7.40;96.30;;;;;;5051658;28;20028;-53
2022/12/25 07:18:49;;;;;;;77.15;30.25;;;7.40;96.30;;;;;;5052945;28;20025;-53
2022/12/25 07:21:18;;;;;;;73.63;32.63;;;7.40;96.30;;;;;;5051902;28;20430;-51
2022/12/25 07:23:47;;;;;;;77.90;34.30;;;7.40;96.30;;;;;;5040363;28;20044;-55
2022/12/25 07:26:16;;;;;;;74.20;36.53;;;7.40;96.30;;;;;;5047657;28;20671;-52
2022/12/25 07:28:43;;;;;;;73.18;35.22;;;7.40;96.30;;;;;;5023218;28;20121;-52
2022/12/25 07:31:14;;;;;;;76.68;32.72;;;7.40;96.30;;;;;;5020121;28;20065;-53
2022/12/25 07:33:41;;;;;;;72.72;30.17;;;7.40;96.30;;;;;;5029757;28;20057;-51
2022/12/25 07:36:11;;;;;;;70.75;31.40;;;7.50;96.40;;;;;;5031121;28;20025;-49
2022/12/25 07:38:38;;;;;;;;;;;7.50;96.30;;;;;;5024127;28;20125;-51
2022/12/25 07:41:08;;;;;;;62.92;31.08;;;7.40;96.30;;;;;;5022014;28;19963;-52
2022/12/25 07:43:35;;;;;;;60.58;30.88;;;7.50;96.40;;;;;;5018724;28;20014;-53
2022/12/25 07:46:05;;;;;;;58.80;29.75;;;7.50;96.30;;;;;;5018919;28;20033;-55
2022/12/25 07:48:32;;;;;;;62.60;30.73;;;7.50;96.40;;;;;;5019955;28;20816;-51
2022/12/25 07:51:16;;;;;;;83.75;33.63;;;7.50;96.30;;;;;;5019070;28;20092;-54
2022/12/25 07:53:43;;;;;;;61.63;29.35;;;7.50;96.30;;;;;;5037341;28;20025;-51
2022/12/25 07:56:16;;;;;;;58.88;29.60;;;7.50;96.40;;;;;;5019283;28;20037;-51
2022/12/25 07:58:43;;;;;;;65.70;29.58;;;7.60;96.40;;;;;;5018704;28;20118;-55
2022/12/25 08:01:11;;;;;;;55.40;29.05;;;7.60;96.30;;;;;;5019289;28;20356;-52
2022/12/25 08:03:42;;;;;;;64.05;29.48;;;7.60;96.40;;;;;;5010757;28;20058;-51
2022/12/25 08:06:12;;;;;;;57.17;29.02;;;7.60;96.40;;;;;;5011258;28;20525;-52
2022/12/25 08:08:39;;;;;;;53.05;28.63;;;7.60;96.40;;;;;;5018403;28;20041;-51
2022/12/25 08:11:08;;;;;;;62.47;30.13;;;7.60;96.40;;;;;;5014665;28;20120;-51
2022/12/25 08:13:35;;;;;;;67.28;29.70;;;7.70;96.40;;;;;;5021675;28;20022;-52
2022/12/25 08:16:06;;;;;;;57.53;29.63;;;7.70;96.40;;;;;;5016281;28;20356;-49
2022/12/25 08:18:35;;;;;;;62.85;30.33;;;7.70;96.40;;;;;;5022393;28;20032;-50
2022/12/25 08:21:07;;;;;;;71.80;29.65;;;7.70;96.40;;;;;;5023124;28;20039;-51
2022/12/25 08:23:45;;;;;;;60.03;31.73;;;7.80;96.40;;;;;;5016286;28;20033;-51
2022/12/25 08:26:18;;;;;;;61.85;29.95;;;7.70;96.40;;;;;;5031210;28;20036;-52
2022/12/25 08:28:45;;;;;;;70.60;30.45;;;7.80;96.40;;;;;;5028116;28;20803;-49
2022/12/25 08:31:32;;;;;;;63.78;29.33;;;7.70;96.30;;;;;;5027029;28;20332;-48
2022/12/25 08:34:03;;;;;;;66.32;31.15;;;7.80;96.40;;;;;;5029352;28;20042;-51
2022/12/25 08:36:29;;;;;;;52.97;28.30;;;7.80;96.40;;;;;;5024846;28;20059;-50
2022/12/25 08:38:56;;;;;;;56.80;31.05;;;7.80;96.40;;;;;;5030236;28;20037;-51
2022/12/25 08:41:29;;;;;;;63.00;30.85;;;7.90;96.40;;;;;;5032189;28;20026;-49
2022/12/25 08:43:55;;;;;;;67.28;31.73;;;7.90;96.40;;;;;;5027103;28;20033;-49
2022/12/25 08:46:22;;;;;;;71.53;33.95;;;7.90;96.40;;;;;;5031932;28;20025;-48
2022/12/25 08:48:49;;;;;;;63.45;31.15;;;7.90;96.40;;;;;;5027363;28;20064;-49
2022/12/25 08:51:20;;;;;;;61.35;30.27;;;7.90;96.40;;;;;;5028012;28;20061;-47
2022/12/25 08:53:49;;;;;;;66.13;32.17;;;7.90;96.40;;;;;;5013398;28;20033;-49
2022/12/25 08:56:17;;;;;;;48.60;27.27;;;7.90;96.40;;;;;;5020203;28;20026;-49
2022/12/25 08:58:45;;;;;;;71.15;30.25;;;7.90;96.40;;;;;;5022809;28;20030;-48
2022/12/25 09:01:12;;;;;;;68.53;31.63;;;7.90;96.40;;;;;;5021711;28;20030;-50
2022/12/25 09:03:40;;;;;;;63.10;30.17;;;8.00;96.40;;;;;;5026548;28;20471;-48
2022/12/25 09:06:09;;;;;;;73.70;31.20;;;7.90;96.40;;;;;;5022425;28;20026;-48
2022/12/25 09:08:37;;;;;;;68.75;32.50;;;7.90;96.40;;;;;;5025526;28;20096;-47
2022/12/25 09:11:09;;;;;;;53.33;28.52;;;7.90;96.30;;;;;;5023005;28;20113;-49
2022/12/25 09:13:39;;;;;;;62.03;31.58;;;8.00;96.40;;;;;;5021062;28;20030;-49
2022/12/25 09:16:08;;;;;;;60.30;31.10;;;8.00;96.40;;;;;;5020251;28;20029;-49
2022/12/25 09:18:35;;;;;;;57.53;28.77;;;8.00;96.40;;;;;;5021651;28;20352;-51
2022/12/25 09:21:05;;;;;;;63.38;30.00;;;8.00;96.40;;;;;;5023890;28;20038;-47
2022/12/25 09:23:32;;;;;;;69.47;31.63;;;8.00;96.40;;;;;;5024884;28;20041;-49
2022/12/25 09:26:04;;;;;;;61.97;32.13;;;8.00;96.40;;;;;;5019463;28;20534;-47
2022/12/25 09:28:31;;;;;;;63.40;30.98;;;8.00;96.40;;;;;;5018309;28;20041;-51
2022/12/25 09:31:01;;;;;;;59.20;31.25;;;8.00;96.30;;;;;;5025145;28;20117;-49
2022/12/25 09:33:28;;;;;;;54.28;28.60;;;8.10;96.40;;;;;;5030734;28;20034;-47
2022/12/25 09:36:12;;;;;;;55.75;28.83;;;8.10;96.40;;;;;;5024799;28;20037;-47
2022/12/25 09:38:43;;;;;;;63.58;30.30;;;8.10;96.40;;;;;;5027306;28;20084;-46
2022/12/25 09:41:23;;;;;;;55.78;28.63;;;8.10;96.30;;;;;;5025153;28;20026;-47
2022/12/25 09:43:51;;;;;;;;;;;8.10;96.30;;;;;;5028956;28;20403;-49
2022/12/25 09:46:23;;;;;;;61.38;29.90;;;8.10;96.30;;;;;;5029729;28;19908;-48
2022/12/25 09:49:05;;;;;;;56.05;28.27;;;8.10;96.40;;;;;;5029231;28;20475;-47
2022/12/25 09:51:34;;;;;;;52.63;26.00;;;8.10;96.40;;;;;;5027261;28;20135;-49
2022/12/25 09:54:10;;;;;;;50.30;26.35;;;8.20;96.30;;;;;;5023739;28;20447;-47
2022/12/25 09:56:36;;;;;;;45.38;28.48;;;8.20;96.30;;;;;;5026924;28;20178;-46
2022/12/25 09:59:11;;;;;;;51.08;28.15;;;8.20;96.30;;;;;;5030357;28;20040;-49
2022/12/25 10:02:00;;;;;;;59.97;29.02;;;8.20;96.30;;;;;;5026706;28;20025;-47
2022/12/25 10:05:03;;;;;;;48.40;27.08;;;8.20;96.30;;;;;;5022450;28;20362;-49
2022/12/25 10:07:47;;;;;;;50.13;27.70;;;8.20;96.30;;;;;;5031961;28;20040;-47
2022/12/25 10:10:44;;;;;;;55.63;27.48;;;8.20;96.30;;;;;;5041025;28;20034;-48
2022/12/25 10:13:47;;;;;;;53.17;29.52;;;8.20;96.30;;;;;;5012629;28;20033;-46
2022/12/25 10:16:24;;;;;;;54.78;28.20;;;8.20;96.30;;;;;;5038321;28;20084;-46
2022/12/25 10:19:18;;;;;;;57.13;29.20;;;8.20;96.30;;;;;;5034145;28;20493;-48
2022/12/25 10:21:46;;;;;;;55.90;30.23;;;8.30;96.30;;;;;;5013624;28;20034;-48
2022/12/25 10:24:34;;;;;;;49.25;25.75;;;8.30;96.30;;;;;;5022714;28;20025;-46
2022/12/25 10:27:10;;;;;;;51.50;27.17;;;8.30;96.20;;;;;;5033389;28;20064;-51
2022/12/25 10:29:37;;;;;;;45.60;26.08;;;8.30;96.30;;;;;;5024403;28;20044;-47
2022/12/25 10:32:04;;;;;;;54.17;27.25;;;8.20;96.20;;;;;;5032092;28;20039;-46
2022/12/25 10:34:32;;;;;;;51.42;28.80;;;8.30;96.20;;;;;;5023063;28;20072;-50
2022/12/25 10:36:58;;;;;;;43.42;25.80;;;8.30;96.20;;;;;;5025344;28;20029;-50
2022/12/25 10:39:27;;;;;;;41.67;26.08;;;8.30;96.20;;;;;;5022506;28;20083;-46
2022/12/25 10:42:18;;;;;;;47.47;25.92;;;8.30;96.20;;;;;;5029512;28;20037;-46
2022/12/25 10:45:03;;;;;;;40.85;24.17;;;8.30;96.20;;;;;;5022307;28;20362;-51
2022/12/25 10:47:33;;;;;;;42.15;23.90;;;8.40;96.20;;;;;;5022016;28;20048;-45
2022/12/25 10:50:06;;;;;;;;;;;8.30;96.20;;;;;;5003976;28;20037;-45
2022/12/25 10:52:34;;;;;;;39.40;23.33;;;8.40;96.10;;;;;;5021467;28;19913;-44
2022/12/25 10:55:11;;;;;;;42.55;22.33;;;8.40;96.20;;;;;;5023579;28;20436;-45
2022/12/25 10:57:47;;;;;;;40.75;22.52;;;8.40;96.10;;;;;;5011590;28;20030;-46
2022/12/25 11:00:27;;;;;;;35.22;23.88;;;8.40;96.10;;;;;;5028399;28;20037;-48
2022/12/25 11:02:52;;;;;;;;;;;8.40;96.10;;;;;;5029236;28;20060;-46
2022/12/25 11:05:30;;;;;;;41.55;24.95;;;8.40;96.10;;;;;;5035780;28;19921;-47
2022/12/25 11:07:59;;;;;;;43.33;23.73;;;8.40;96.00;;;;;;5029906;28;20470;-46
2022/12/25 11:10:35;;;;;;;43.05;24.00;;;8.40;96.00;;;;;;5022052;28;20084;-46
2022/12/25 11:13:06;;;;;;;35.47;22.05;;;8.40;96.00;;;;;;5030356;28;20029;-44
2022/12/25 11:16:03;;;;;;;40.58;22.63;;;8.40;96.00;;;;;;5030199;28;20036;-50
2022/12/25 11:18:34;;;;;;;31.38;20.90;;;8.40;96.00;;;;;;5033255;28;20053;-46
2022/12/25 11:21:27;;;;;;;40.65;22.02;;;8.40;95.90;;;;;;5021108;28;20034;-45
2022/12/25 11:23:59;;;;;;;29.75;20.92;;;8.40;95.90;;;;;;5032584;28;20537;-47
2022/12/25 11:26:47;;;;;;;36.35;20.85;;;8.40;95.90;;;;;;5027514;28;20370;-46
2022/12/25 11:29:37;;;;;;;32.90;21.17;;;8.40;95.90;;;;;;5023103;28;20034;-47
2022/12/25 11:32:09;;;;;;;;;;;8.40;95.80;;;;;;5029344;28;20429;-47
2022/12/25 11:34:42;;;;;;;31.83;19.67;;;8.40;95.80;;;;;;5034564;28;19912;-48
2022/12/25 11:37:17;;;;;;;27.67;19.83;;;8.30;95.80;;;;;;5041570;28;20029;-47
2022/12/25 11:39:43;;;;;;;37.85;19.80;;;8.40;95.80;;;;;;5048427;28;20454;-46
2022/12/25 11:42:36;;;;;;;28.33;19.92;;;8.40;95.70;;;;;;5046317;28;20443;-47
2022/12/25 11:45:05;;;;;;;30.48;19.40;;;8.40;95.70;;;;;;5013071;28;20030;-47
2022/12/25 11:47:56;;;;;;;25.98;19.15;;;8.40;95.70;;;;;;5031461;28;20026;-47
2022/12/25 11:50:42;;;;;;;36.58;20.63;;;8.30;95.70;;;;;;5032256;28;20049;-50
2022/12/25 11:53:36;;;;;;;39.15;22.77;;;8.30;95.70;;;;;;5033462;28;20028;-44
2022/12/25 11:56:10;;;;;;;28.92;19.38;;;8.40;95.70;;;;;;5018226;28;20034;-46
2022/12/25 11:58:43;;;;;;;28.45;18.80;;;8.40;95.70;;;;;;5030940;28;20022;-45
2022/12/25 12:01:45;;;;;;;26.25;18.98;;;8.40;95.60;;;;;;5029485;28;20374;-44
2022/12/25 12:04:35;;;;;;;38.15;21.20;;;8.40;95.60;;;;;;5028993;28;20050;-45
2022/12/25 12:07:27;;;;;;;32.28;19.40;;;8.40;95.60;;;;;;5014725;28;20064;-48
2022/12/25 12:10:20;;;;;;;32.95;19.15;;;8.40;95.50;;;;;;5027045;28;20497;-45
2022/12/25 12:13:10;;;;;;;27.98;18.08;;;8.40;95.60;;;;;;5022571;28;20430;-45
2022/12/25 12:15:47;;;;;;;30.33;18.88;;;8.50;95.50;;;;;;5018046;28;20122;-44
2022/12/25 12:18:25;;;;;;;27.70;18.15;;;8.50;95.50;;;;;;5017010;28;20040;-44
2022/12/25 12:21:19;;;;;;;29.83;17.08;;;8.50;95.40;;;;;;5027470;28;20478;-47
2022/12/25 12:24:15;;;;;;;28.30;18.38;;;8.50;95.50;;;;;;5019731;28;20092;-45
2022/12/25 12:26:45;;;;;;;31.67;19.08;;;8.50;95.40;;;;;;5026154;28;20157;-45
2022/12/25 12:29:37;;;;;;;27.30;17.42;;;8.50;95.40;;;;;;5017952;28;20113;-45
2022/12/25 12:32:05;;;;;;;31.58;18.38;;;8.50;95.40;;;;;;5018867;28;20041;-46
2022/12/25 12:34:49;;;;;;;32.15;18.42;;;8.50;95.30;;;;;;5019381;28;20111;-47
2022/12/25 12:37:29;;;;;;;26.40;17.90;;;8.60;95.30;;;;;;5028436;28;20033;-44
2022/12/25 12:39:56;;;;;;;31.92;17.65;;;8.50;95.20;;;;;;5028922;28;20017;-44
2022/12/25 12:42:39;;;;;;;25.42;16.75;;;8.50;95.20;;;;;;5032607;28;20033;-45
2022/12/25 12:45:34;;;;;;;26.73;17.98;;;8.50;95.10;;;;;;5021739;28;20026;-43
2022/12/25 12:48:01;;;;;;;28.13;17.35;;;8.40;95.10;;;;;;5034465;28;20042;-46
2022/12/25 12:50:38;;;;;;;28.00;17.42;;;8.40;95.10;;;;;;5018147;28;20026;-47
2022/12/25 12:53:24;;;;;;;30.75;18.67;;;8.40;95.10;;;;;;5030904;28;20029;-44
2022/12/25 12:55:52;;;;;;;29.63;18.48;;;8.30;95.10;;;;;;5030985;28;20117;-45
2022/12/25 12:58:34;;;;;;;23.55;16.58;;;8.30;95.10;;;;;;5030764;28;20057;-47
2022/12/25 13:01:37;;;;;;;27.85;17.52;;;8.30;95.10;;;;;;5029949;28;20103;-43
2022/12/25 13:04:32;;;;;;;31.95;17.40;;;8.30;95.10;;;;;;5033506;28;20068;-48
2022/12/25 13:07:20;;;;;;;25.52;18.38;;;8.30;95.10;;;;;;5043201;28;20049;-44
2022/12/25 13:10:31;;;;;;;27.08;17.50;;;8.30;95.10;;;;;;5014768;28;20069;-44
2022/12/25 13:13:14;;;;;;;31.45;17.33;;;8.30;95.20;;;;;;5017158;28;20699;-46
2022/12/25 13:15:45;;;;;;;26.63;16.80;;;8.30;95.20;;;;;;5020659;28;20064;-43
2022/12/25 13:18:15;;;;;;;31.20;17.73;;;8.20;95.10;;;;;;5017748;28;20355;-47
2022/12/25 13:21:02;;;;;;;;;;;8.20;95.10;;;;;;5017468;28;20068;-44
2022/12/25 13:23:46;;;;;;;27.00;17.33;;;8.20;95.10;;;;;;5029352;28;19913;-45
2022/12/25 13:26:15;;;;;;;27.20;17.65;;;8.20;95.10;;;;;;5025975;28;20483;-44
2022/12/25 13:28:45;;;;;;;26.33;16.58;;;8.10;95.10;;;;;;5030615;28;20052;-48
2022/12/25 13:31:30;;;;;;;;;;;8.10;95.10;;;;;;5026564;28;20061;-47
2022/12/25 13:34:18;;;;;;;23.65;16.15;;;8.10;95.10;;;;;;5014095;28;19921;-44
2022/12/25 13:36:47;;;;;;;19.17;14.43;;;8.10;95.20;;;;;;5014459;28;20082;-45
2022/12/25 13:39:16;;;;;;;25.17;16.50;;;8.00;95.20;;;;;;5027500;28;20044;-47
2022/12/25 13:44:52;;;;;;;27.55;15.35;;;8.20;95.40;;;;;;5026767;28;20086;-46
2022/12/25 13:47:32;;;;;;;21.55;16.00;;;8.20;95.30;;;;;;5037237;28;20061;-45
2022/12/25 13:50:21;;;;;;;25.92;16.63;;;8.10;95.20;;;;;;5034111;28;20032;-46
2022/12/25 13:52:49;;;;;;;30.13;15.97;;;8.10;95.20;;;;;;5045723;28;20065;-45
2022/12/25 13:55:28;;;;;;;25.55;15.73;;;8.10;95.20;;;;;;5043905;28;20025;-45
2022/12/25 13:58:02;;;;;;;20.23;14.65;;;8.10;95.20;;;;;;5051434;28;20411;-46
2022/12/25 14:00:51;;;;;;;23.13;14.30;;;8.10;95.20;;;;;;5033895;28;20033;-43
2022/12/25 14:03:42;;;;;;;19.10;13.70;;;8.10;95.20;;;;;;5030283;28;20079;-45
2022/12/25 14:06:27;;;;;;;21.88;15.23;;;8.10;95.20;;;;;;5024696;28;20037;-44
2022/12/25 14:08:57;;;;;;;18.05;12.23;;;8.10;95.20;;;;;;5027014;28;20585;-46
2022/12/25 14:11:27;;;;;;;36.25;14.95;;;8.10;95.10;;;;;;5043936;28;20034;-43
2022/12/25 14:13:58;;;;;;;;;;;8.10;95.10;;;;;;5025955;28;20029;-45
2022/12/25 14:16:26;;;;;;;24.33;12.27;;;8.10;95.10;;;;;;5022463;28;20250;-47
2022/12/25 14:18:58;;;;;;;19.35;13.02;;;8.20;95.20;;;;;;5014031;28;20026;-46
2022/12/25 14:21:48;;;;;;;17.98;13.13;;;8.20;95.10;;;;;;5017065;28;20446;-48
2022/12/25 14:24:16;;;;;;;14.50;11.18;;;8.20;95.10;;;;;;5028107;28;20584;-48
2022/12/25 14:26:45;;;;;;;18.60;12.60;;;8.20;95.10;;;;;;5020592;28;20041;-44
2022/12/25 14:29:19;;;;;;;20.65;12.23;;;8.20;95.00;;;;;;5013552;28;20058;-43
2022/12/25 14:31:46;;;;;;;14.80;11.27;;;8.20;95.00;;;;;;5033170;28;20401;-44
2022/12/25 14:34:22;;;;;;;21.23;12.13;;;8.20;95.00;;;;;;5031038;28;20098;-44
2022/12/25 14:36:51;;;;;;;23.65;13.23;;;8.20;95.00;;;;;;5025108;28;20041;-50
2022/12/25 14:39:35;;;;;;;21.85;11.57;;;8.20;95.00;;;;;;5031439;28;20036;-44
2022/12/25 14:42:17;;;;;;;21.15;13.18;;;8.20;94.90;;;;;;5028468;28;20022;-44
2022/12/25 14:45:04;;;;;;;18.65;12.25;;;8.10;94.90;;;;;;5032262;28;20034;-46
2022/12/25 14:47:34;;;;;;;20.85;12.27;;;8.10;94.90;;;;;;5024805;28;20420;-45
2022/12/25 14:50:12;;;;;;;16.90;11.50;;;8.00;95.00;;;;;;5031316;28;20036;-46
2022/12/25 14:52:43;;;;;;;21.27;11.50;;;8.00;95.00;;;;;;5026383;28;20021;-48
2022/12/25 14:55:30;;;;;;;25.65;13.10;;;8.00;95.00;;;;;;5021328;28;20033;-49